createdAt,value
2024-01-09T00:02:09.195Z,96.62
2024-01-09T00:04:37.521Z,96.86
2024-01-09T00:07:05.939Z,96.74
2024-01-09T00:09:36.467Z,97.19
2024-01-09T00:12:04.891Z,97.27
2024-01-09T00:14:36.207Z,97.24
2024-01-09T00:17:04.164Z,97.32
2024-01-09T00:19:34.634Z,97.37
2024-01-09T00:22:04.942Z,97.72
2024-01-09T00:24:33.186Z,97.98
2024-01-09T00:27:01.123Z,97.89
2024-01-09T00:29:29.588Z,98.15
2024-01-09T00:32:01.085Z,98.46
2024-01-09T00:34:29.330Z,98.76
2024-01-09T00:36:57.130Z,98.90
2024-01-09T00:39:26.129Z,99.17
2024-01-09T00:41:54.206Z,99.30
2024-01-09T00:44:22.472Z,99.69
2024-01-09T00:46:50.586Z,99.65
2024-01-09T00:49:19.894Z,99.99
2024-01-09T00:51:48.328Z,100.00
2024-01-09T00:54:16.209Z,100.00
2024-01-09T00:56:44.271Z,100.00
2024-01-09T00:59:12.558Z,100.00
2024-01-09T01:01:43.407Z,100.00
2024-01-09T01:04:11.497Z,100.00
2024-01-09T01:06:47.718Z,100.00
2024-01-09T01:09:15.672Z,100.00
2024-01-09T01:11:43.508Z,100.00
2024-01-09T01:14:11.687Z,100.00
2024-01-09T01:16:39.941Z,100.00
2024-01-09T01:19:08.036Z,100.00
2024-01-09T01:21:35.954Z,100.00
2024-01-09T01:24:05.922Z,100.00
2024-01-09T01:26:34.410Z,100.00
2024-01-09T01:29:02.818Z,100.00
2024-01-09T01:31:31.245Z,100.00
2024-01-09T01:33:59.715Z,100.00
2024-01-09T01:36:28.573Z,100.00
2024-01-09T01:38:56.514Z,100.00
2024-01-09T01:41:26.518Z,100.00
2024-01-09T01:43:54.678Z,100.00
2024-01-09T01:46:23.214Z,100.00
2024-01-09T01:48:53.979Z,100.00
2024-01-09T01:51:22.161Z,100.00
2024-01-09T01:53:50.433Z,100.00
2024-01-09T01:56:18.765Z,100.00
2024-01-09T01:58:48.330Z,100.00
2024-01-09T02:01:16.637Z,100.00
2024-01-09T02:03:45.118Z,100.00
2024-01-09T02:06:15.514Z,100.00
2024-01-09T02:08:46.068Z,100.00
2024-01-09T02:11:15.210Z,100.00
2024-01-09T02:13:43.638Z,100.00
2024-01-09T02:16:28.324Z,100.00
2024-01-09T02:18:58.195Z,100.00
2024-01-09T02:21:29.889Z,100.00
2024-01-09T02:23:58.108Z,100.00
2024-01-09T02:26:47.504Z,100.00
2024-01-09T02:29:31.877Z,100.00
2024-01-09T02:32:03.930Z,100.00
2024-01-09T02:34:34.605Z,100.00
2024-01-09T02:37:03.169Z,100.00
2024-01-09T02:39:31.845Z,100.00
2024-01-09T02:41:59.899Z,100.00
2024-01-09T02:44:28.126Z,100.00
2024-01-09T02:46:56.512Z,100.00
2024-01-09T02:49:25.903Z,100.00
2024-01-09T02:51:54.432Z,100.00
2024-01-09T02:54:22.413Z,100.00
2024-01-09T02:56:51.436Z,100.00
2024-01-09T02:59:19.801Z,100.00
2024-01-09T03:01:47.717Z,100.00
2024-01-09T03:04:15.861Z,100.00
2024-01-09T03:06:45.661Z,100.00
2024-01-09T03:09:17.414Z,100.00
2024-01-09T03:11:45.894Z,100.00
2024-01-09T03:14:18.259Z,100.00
2024-01-09T03:16:49.390Z,100.00
2024-01-09T03:19:18.229Z,100.00
2024-01-09T03:21:48.746Z,100.00
2024-01-09T03:24:17.016Z,100.00
2024-01-09T03:26:46.012Z,100.00
2024-01-09T03:29:14.685Z,100.00
2024-01-09T03:31:42.840Z,100.00
2024-01-09T03:34:11.111Z,100.00
2024-01-09T03:36:41.081Z,100.00
2024-01-09T03:39:12.818Z,100.00
2024-01-09T03:41:41.334Z,100.00
2024-01-09T03:44:10.111Z,100.00
2024-01-09T03:46:38.752Z,100.00
2024-01-09T03:49:08.069Z,100.00
2024-01-09T03:51:36.408Z,100.00
2024-01-09T03:54:05.106Z,100.00
2024-01-09T03:56:34.999Z,100.00
2024-01-09T03:59:03.233Z,100.00
2024-01-09T04:01:31.105Z,100.00
2024-01-09T04:04:00.616Z,100.00
2024-01-09T04:06:29.041Z,100.00
2024-01-09T04:08:57.219Z,100.00
2024-01-09T04:11:25.432Z,100.00
2024-01-09T04:13:55.479Z,100.00
2024-01-09T04:16:23.782Z,100.00
2024-01-09T04:18:51.946Z,100.00
2024-01-09T04:21:19.935Z,100.00
2024-01-09T04:23:48.378Z,100.00
2024-01-09T04:26:16.933Z,100.00
2024-01-09T04:28:45.031Z,100.00
2024-01-09T04:31:20.147Z,100.00
2024-01-09T04:33:48.360Z,100.00
2024-01-09T04:36:18.373Z,100.00
2024-01-09T04:38:48.529Z,100.00
2024-01-09T04:41:18.036Z,100.00
2024-01-09T04:43:47.553Z,100.00
2024-01-09T04:46:16.963Z,100.00
2024-01-09T04:48:46.412Z,100.00
2024-01-09T04:51:14.944Z,100.00
2024-01-09T04:53:43.133Z,100.00
2024-01-09T04:56:11.226Z,100.00
2024-01-09T04:58:39.266Z,100.00
2024-01-09T05:01:21.194Z,100.00
2024-01-09T05:03:55.530Z,100.00
2024-01-09T05:06:24.120Z,100.00
2024-01-09T05:08:52.576Z,100.00
2024-01-09T05:11:20.894Z,100.00
2024-01-09T05:13:51.912Z,100.00
2024-01-09T05:16:19.744Z,100.00
2024-01-09T05:18:48.156Z,100.00
2024-01-09T05:21:18.113Z,100.00
2024-01-09T05:23:46.771Z,100.00
2024-01-09T05:26:14.908Z,100.00
2024-01-09T05:28:43.139Z,100.00
2024-01-09T05:31:11.466Z,100.00
2024-01-09T05:33:40.227Z,100.00
2024-01-09T05:36:09.486Z,100.00
2024-01-09T05:38:39.185Z,100.00
2024-01-09T05:41:06.453Z,100.00
2024-01-09T05:43:34.939Z,100.00
2024-01-09T05:46:03.515Z,100.00
2024-01-09T05:48:34.846Z,100.00
2024-01-09T05:51:05.123Z,100.00
2024-01-09T05:53:33.605Z,100.00
2024-01-09T05:56:02.977Z,100.00
2024-01-09T05:58:30.967Z,100.00
2024-01-09T06:00:59.134Z,100.00
2024-01-09T06:03:28.017Z,100.00
2024-01-09T06:05:57.403Z,100.00
2024-01-09T06:08:27.125Z,100.00
2024-01-09T06:10:56.362Z,100.00
2024-01-09T06:13:26.377Z,100.00
2024-01-09T06:15:55.985Z,100.00
2024-01-09T06:18:24.445Z,100.00
2024-01-09T06:20:52.654Z,100.00
2024-01-09T06:23:20.815Z,100.00
2024-01-09T06:25:48.797Z,100.00
2024-01-09T06:28:17.100Z,100.00
2024-01-09T06:30:47.086Z,100.00
2024-01-09T06:33:15.906Z,100.00
2024-01-09T06:35:49.101Z,100.00
2024-01-09T06:38:19.399Z,100.00
2024-01-09T06:40:47.661Z,100.00
2024-01-09T06:43:16.040Z,100.00
2024-01-09T06:45:45.054Z,100.00
2024-01-09T06:48:14.656Z,100.00
2024-01-09T06:50:42.898Z,100.00
2024-01-09T06:53:10.989Z,100.00
2024-01-09T06:55:39.324Z,100.00
2024-01-09T06:58:07.384Z,100.00
2024-01-09T07:00:36.107Z,100.00
2024-01-09T07:03:04.927Z,100.00
2024-01-09T07:05:34.835Z,100.00
2024-01-09T07:08:02.868Z,100.00
2024-01-09T07:10:31.027Z,100.00
2024-01-09T07:12:59.208Z,100.00
2024-01-09T07:15:27.582Z,100.00
2024-01-09T07:18:01.826Z,100.00
2024-01-09T07:20:30.297Z,100.00
2024-01-09T07:23:09.544Z,100.00
2024-01-09T07:25:45.127Z,100.00
2024-01-09T07:28:13.200Z,100.00
2024-01-09T07:30:41.410Z,100.00
2024-01-09T07:33:09.764Z,100.00
2024-01-09T07:35:39.308Z,100.00
2024-01-09T07:38:09.404Z,100.00
2024-01-09T07:40:38.241Z,100.00
2024-01-09T07:43:06.147Z,100.00
2024-01-09T07:45:34.369Z,100.00
2024-01-09T07:48:04.619Z,100.00
2024-01-09T07:50:33.072Z,100.00
2024-01-09T07:53:02.886Z,100.00
2024-01-09T07:55:34.450Z,100.00
2024-01-09T07:58:03.435Z,100.00
2024-01-09T08:00:34.289Z,100.00
2024-01-09T08:03:05.750Z,100.00
2024-01-09T08:05:34.350Z,100.00
2024-01-09T08:08:03.562Z,100.00
2024-01-09T08:10:33.177Z,100.00
2024-01-09T08:13:01.822Z,100.00
2024-01-09T08:15:30.679Z,100.00
2024-01-09T08:18:00.433Z,100.00
2024-01-09T08:20:30.328Z,100.00
2024-01-09T08:22:59.462Z,100.00
2024-01-09T08:25:28.708Z,100.00
2024-01-09T08:28:10.207Z,100.00
2024-01-09T08:30:41.270Z,100.00
2024-01-09T08:33:10.363Z,100.00
2024-01-09T08:35:38.964Z,100.00
2024-01-09T08:38:07.214Z,100.00
2024-01-09T08:40:36.457Z,100.00
2024-01-09T08:43:07.015Z,99.87
2024-01-09T08:45:35.440Z,99.91
2024-01-09T08:48:04.204Z,99.55
2024-01-09T08:50:32.491Z,98.89
2024-01-09T08:53:00.950Z,98.81
2024-01-09T08:55:36.736Z,97.40
2024-01-09T08:58:06.666Z,96.13
2024-01-09T09:00:35.125Z,95.33
2024-01-09T09:03:04.450Z,95.26
2024-01-09T09:05:35.010Z,94.71
2024-01-09T09:08:05.883Z,94.57
2024-01-09T09:10:34.169Z,93.40
2024-01-09T09:13:02.725Z,92.24
2024-01-09T09:15:32.818Z,90.95
2024-01-09T09:18:01.358Z,89.22
2024-01-09T09:20:30.137Z,88.92
2024-01-09T09:23:00.018Z,86.87
2024-01-09T09:25:29.151Z,85.39
2024-01-09T09:27:57.747Z,83.26
2024-01-09T09:30:26.933Z,82.16
2024-01-09T09:32:58.304Z,79.05
2024-01-09T09:35:26.512Z,78.54
2024-01-09T09:37:54.463Z,77.14
2024-01-09T09:40:23.343Z,75.04
2024-01-09T09:42:57.250Z,73.85
2024-01-09T09:45:27.202Z,73.25
2024-01-09T09:47:57.461Z,71.73
2024-01-09T09:50:27.640Z,69.98
2024-01-09T09:52:58.418Z,68.72
2024-01-09T09:55:26.751Z,66.34
2024-01-09T09:57:55.033Z,65.42
2024-01-09T10:00:23.558Z,65.76
2024-01-09T10:02:52.204Z,65.57
2024-01-09T10:05:22.257Z,65.73
2024-01-09T10:07:56.517Z,64.16
2024-01-09T10:10:25.101Z,64.44
2024-01-09T10:12:58.546Z,63.22
2024-01-09T10:15:26.980Z,62.96
2024-01-09T10:17:55.459Z,62.41
2024-01-09T10:20:26.533Z,61.54
2024-01-09T10:22:55.661Z,60.62
2024-01-09T10:25:24.463Z,59.74
2024-01-09T10:27:52.847Z,61.17
2024-01-09T10:30:24.578Z,58.37
2024-01-09T10:32:54.503Z,60.88
2024-01-09T10:35:28.490Z,59.72
2024-01-09T10:37:58.111Z,57.34
2024-01-09T10:40:30.404Z,55.79
2024-01-09T10:42:58.943Z,55.65
2024-01-09T10:45:28.465Z,54.04
2024-01-09T10:47:56.748Z,53.03
2024-01-09T10:50:27.152Z,52.63
2024-01-09T10:52:55.554Z,51.87
2024-01-09T10:55:26.140Z,48.63
2024-01-09T10:57:54.402Z,50.24
2024-01-09T11:00:25.529Z,49.38
2024-01-09T11:02:56.819Z,48.78
2024-01-09T11:05:26.720Z,48.83
2024-01-09T11:07:59.460Z,48.30
2024-01-09T11:10:29.197Z,47.62
2024-01-09T11:12:58.822Z,47.03
2024-01-09T11:15:32.907Z,46.73
2024-01-09T11:18:07.039Z,44.80
2024-01-09T11:20:37.580Z,45.23
2024-01-09T11:23:06.459Z,44.27
2024-01-09T11:25:36.764Z,43.57
2024-01-09T11:28:07.696Z,44.25
2024-01-09T11:30:38.680Z,44.10
2024-01-09T11:33:34.389Z,44.77
2024-01-09T11:36:08.858Z,44.90
2024-01-09T11:38:39.914Z,43.07
2024-01-09T11:41:11.427Z,42.89
2024-01-09T11:44:05.234Z,43.13
2024-01-09T11:46:36.561Z,42.48
2024-01-09T11:49:05.886Z,42.74
2024-01-09T11:51:36.050Z,42.68
2024-01-09T11:54:05.539Z,42.62
2024-01-09T11:56:33.921Z,41.08
2024-01-09T11:59:03.172Z,42.38
2024-01-09T12:01:31.212Z,42.88
2024-01-09T12:04:00.630Z,42.27
2024-01-09T12:06:31.073Z,42.94
2024-01-09T12:09:01.376Z,42.21
2024-01-09T12:11:30.219Z,43.18
2024-01-09T12:14:02.192Z,43.13
2024-01-09T12:16:31.542Z,42.89
2024-01-09T12:19:01.399Z,42.59
2024-01-09T12:21:32.922Z,43.25
2024-01-09T12:24:20.669Z,44.03
2024-01-09T12:26:53.900Z,43.78
2024-01-09T12:29:22.528Z,42.00
2024-01-09T12:31:52.500Z,40.02
2024-01-09T12:34:20.736Z,40.30
2024-01-09T12:36:49.804Z,41.16
2024-01-09T12:39:24.029Z,41.16
2024-01-09T12:41:54.817Z,38.91
2024-01-09T12:44:24.746Z,39.45
2024-01-09T12:46:55.163Z,39.26
2024-01-09T12:49:24.586Z,40.56
2024-01-09T12:51:56.773Z,40.89
2024-01-09T12:54:28.632Z,39.18
2024-01-09T12:57:00.064Z,38.27
2024-01-09T12:59:29.065Z,37.69
2024-01-09T13:01:57.644Z,36.28
2024-01-09T13:04:29.944Z,35.51
2024-01-09T13:07:00.993Z,38.18
2024-01-09T13:09:37.884Z,39.08
2024-01-09T13:12:10.410Z,37.50
2024-01-09T13:14:42.864Z,36.54
2024-01-09T13:17:11.208Z,37.11
2024-01-09T13:19:39.882Z,37.24
2024-01-09T13:23:46.098Z,39.34
2024-01-09T13:24:58.581Z,40.22
2024-01-09T13:27:26.992Z,39.62
2024-01-09T13:32:25.865Z,38.68
2024-01-09T13:34:54.369Z,38.44
2024-01-09T13:37:22.641Z,37.54
2024-01-09T13:39:50.593Z,39.72
2024-01-09T13:42:19.911Z,40.33
2024-01-09T13:44:48.365Z,40.33
2024-01-09T13:47:16.682Z,39.95
2024-01-09T13:52:17.889Z,42.43
2024-01-09T13:54:46.051Z,42.06
2024-01-09T13:57:15.354Z,41.74
2024-01-09T13:59:45.914Z,41.88
2024-01-09T14:02:15.292Z,40.85
2024-01-09T14:04:45.302Z,42.49
2024-01-09T14:07:13.780Z,44.08
2024-01-09T14:09:43.244Z,43.68
2024-01-09T14:12:11.531Z,44.30
2024-01-09T14:14:40.299Z,44.99
2024-01-09T14:17:10.200Z,43.97
2024-01-09T14:19:38.974Z,45.46
2024-01-09T14:22:07.358Z,45.47
2024-01-09T14:24:35.964Z,45.56
2024-01-09T14:27:04.410Z,45.61
2024-01-09T14:29:32.663Z,45.81
2024-01-09T14:32:01.170Z,45.90
2024-01-09T14:34:30.468Z,45.06
2024-01-09T14:36:58.677Z,46.40
2024-01-09T14:39:27.185Z,45.89
2024-01-09T14:41:56.019Z,45.49
2024-01-09T14:44:24.484Z,47.65
2024-01-09T14:47:00.100Z,47.21
2024-01-09T14:49:28.386Z,46.12
2024-01-09T14:51:57.829Z,46.20
2024-01-09T14:54:28.796Z,48.01
2024-01-09T14:56:59.178Z,48.30
2024-01-09T14:59:28.023Z,49.13
2024-01-09T15:01:56.152Z,50.05
2024-01-09T15:04:24.450Z,50.76
2024-01-09T15:06:57.540Z,50.87
2024-01-09T15:09:31.968Z,51.02
2024-01-09T15:12:03.131Z,51.23
2024-01-09T15:14:34.478Z,51.75
2024-01-09T15:17:03.966Z,51.96
2024-01-09T15:19:32.240Z,52.33
2024-01-09T15:22:03.030Z,52.89
2024-01-09T15:24:34.539Z,53.91
2024-01-09T15:27:03.002Z,54.75
2024-01-09T15:29:33.808Z,55.34
2024-01-09T15:32:05.601Z,55.87
2024-01-09T15:34:37.779Z,56.12
2024-01-09T15:37:07.771Z,56.73
2024-01-09T15:39:39.918Z,56.80
2024-01-09T15:42:13.036Z,57.12
2024-01-09T15:44:42.968Z,56.84
2024-01-09T15:47:15.284Z,57.60
2024-01-09T15:49:44.834Z,57.52
2024-01-09T15:52:18.359Z,58.06
2024-01-09T15:54:53.301Z,58.51
2024-01-09T15:57:25.451Z,58.79
2024-01-09T15:59:55.714Z,58.96
2024-01-09T16:02:24.349Z,59.51
2024-01-09T16:04:54.074Z,59.19
2024-01-09T16:07:25.621Z,59.23
2024-01-09T16:09:57.705Z,58.98
2024-01-09T16:12:27.966Z,59.33
2024-01-09T16:14:57.222Z,59.23
2024-01-09T16:17:26.519Z,59.79
2024-01-09T16:19:55.219Z,59.75
2024-01-09T16:22:23.731Z,59.67
2024-01-09T16:24:52.255Z,59.71
2024-01-09T16:27:44.876Z,59.86
2024-01-09T16:30:26.339Z,59.99
2024-01-09T16:32:54.989Z,60.43
2024-01-09T16:35:24.936Z,60.75
2024-01-09T16:37:55.483Z,61.15
2024-01-09T16:40:26.656Z,61.72
2024-01-09T16:42:57.702Z,61.87
2024-01-09T16:45:26.477Z,61.06
2024-01-09T16:48:01.134Z,61.14
2024-01-09T16:50:29.696Z,61.16
2024-01-09T16:53:00.511Z,61.57
2024-01-09T16:55:30.006Z,61.63
2024-01-09T16:58:00.593Z,61.84
2024-01-09T17:00:30.025Z,61.66
2024-01-09T17:03:05.013Z,61.83
2024-01-09T17:05:34.634Z,61.87
2024-01-09T17:08:03.373Z,61.15
2024-01-09T17:10:33.258Z,61.42
2024-01-09T17:13:03.735Z,61.63
2024-01-09T17:15:31.852Z,61.47
2024-01-09T17:18:02.639Z,61.28
2024-01-09T17:20:33.459Z,61.22
2024-01-09T17:23:03.344Z,61.03
2024-01-09T17:25:32.122Z,61.20
2024-01-09T17:28:27.259Z,61.45
2024-01-09T17:30:55.861Z,61.28
2024-01-09T17:33:25.554Z,61.11
2024-01-09T17:35:54.249Z,60.99
2024-01-09T17:38:23.642Z,61.06
2024-01-09T17:40:52.156Z,60.92
2024-01-09T17:43:21.761Z,60.96
2024-01-09T17:45:53.302Z,61.37
2024-01-09T17:48:22.399Z,61.03
2024-01-09T17:50:50.826Z,61.14
2024-01-09T17:53:19.999Z,61.26
2024-01-09T17:55:51.585Z,61.37
2024-01-09T17:58:22.092Z,61.08
2024-01-09T18:00:51.837Z,60.77
2024-01-09T18:03:20.933Z,61.10
2024-01-09T18:05:50.808Z,61.23
2024-01-09T18:08:20.699Z,61.19
2024-01-09T18:10:50.986Z,61.39
2024-01-09T18:13:19.860Z,61.15
2024-01-09T18:15:49.725Z,61.86
2024-01-09T18:18:19.823Z,61.46
2024-01-09T18:20:48.494Z,61.74
2024-01-09T18:23:19.795Z,62.12
2024-01-09T18:25:48.648Z,61.77
2024-01-09T18:28:26.509Z,61.77
2024-01-09T18:30:57.808Z,61.70
2024-01-09T18:33:27.679Z,61.02
2024-01-09T18:36:01.795Z,61.61
2024-01-09T18:38:32.364Z,61.40
2024-01-09T18:41:02.078Z,61.47
2024-01-09T18:43:30.294Z,61.49
2024-01-09T18:46:01.253Z,61.42
2024-01-09T18:48:34.748Z,61.54
2024-01-09T18:51:03.803Z,60.88
2024-01-09T18:53:33.229Z,61.29
2024-01-09T18:56:04.882Z,61.20
2024-01-09T18:58:34.072Z,61.23
2024-01-09T19:01:05.432Z,61.03
2024-01-09T19:03:36.434Z,61.02
2024-01-09T19:06:08.056Z,61.43
2024-01-09T19:08:36.482Z,61.27
2024-01-09T19:11:05.988Z,61.64
2024-01-09T19:13:37.723Z,61.86
2024-01-09T19:16:07.197Z,61.57
2024-01-09T19:18:40.005Z,62.16
2024-01-09T19:21:09.512Z,62.33
2024-01-09T19:23:39.296Z,62.31
2024-01-09T19:26:11.797Z,62.81
2024-01-09T19:28:40.119Z,62.59
2024-01-09T19:31:11.975Z,63.01
2024-01-09T19:33:45.678Z,63.39
2024-01-09T19:36:15.160Z,63.91
2024-01-09T19:38:48.478Z,64.80
2024-01-09T19:41:20.125Z,64.21
2024-01-09T19:43:49.188Z,64.16
2024-01-09T19:46:20.953Z,65.01
2024-01-09T19:48:59.563Z,64.84
2024-01-09T19:51:28.954Z,65.32
2024-01-09T19:53:57.191Z,65.75
2024-01-09T19:56:28.963Z,65.60
2024-01-09T19:58:57.455Z,66.20
2024-01-09T20:01:26.253Z,66.26
2024-01-09T20:03:58.414Z,66.86
2024-01-09T20:06:27.168Z,67.25
2024-01-09T20:08:57.620Z,67.64
2024-01-09T20:11:30.292Z,67.60
2024-01-09T20:14:00.974Z,67.97
2024-01-09T20:16:30.291Z,68.39
2024-01-09T20:19:01.848Z,68.94
2024-01-09T20:21:49.523Z,69.40
2024-01-09T20:24:42.214Z,69.66
2024-01-09T20:27:10.958Z,71.06
2024-01-09T20:29:44.811Z,71.12
2024-01-09T20:32:15.002Z,71.41
2024-01-09T20:34:44.925Z,71.71
2024-01-09T20:37:17.979Z,72.45
2024-01-09T20:39:54.009Z,73.63
2024-01-09T20:42:22.382Z,74.20
2024-01-09T20:44:50.855Z,74.05
2024-01-09T20:47:20.745Z,74.47
2024-01-09T20:49:52.547Z,74.30
2024-01-09T20:52:30.095Z,74.40
2024-01-09T20:54:58.965Z,74.89
2024-01-09T20:57:55.506Z,74.52
2024-01-09T21:00:28.378Z,74.67
2024-01-09T21:02:59.912Z,74.81
2024-01-09T21:05:36.623Z,74.28
2024-01-09T21:08:08.806Z,74.60
2024-01-09T21:10:40.965Z,74.42
2024-01-09T21:13:17.497Z,74.70
2024-01-09T21:15:46.448Z,75.32
2024-01-09T21:18:18.524Z,75.68
2024-01-09T21:20:48.292Z,75.32
2024-01-09T21:23:24.520Z,75.85
2024-01-09T21:26:01.895Z,76.37
2024-01-09T21:28:30.685Z,76.44
2024-01-09T21:30:58.736Z,76.83
2024-01-09T21:33:27.986Z,77.24
2024-01-09T21:35:59.010Z,77.74
2024-01-09T21:38:27.307Z,78.15
2024-01-09T21:40:59.211Z,78.57
2024-01-09T21:43:28.965Z,78.87
2024-01-09T21:45:57.194Z,79.04
2024-01-09T21:48:26.327Z,79.10
2024-01-09T21:50:55.452Z,79.33
2024-01-09T21:53:28.061Z,79.58
2024-01-09T21:55:57.014Z,79.71
2024-01-09T21:58:28.573Z,80.26
2024-01-09T22:00:57.512Z,80.68
2024-01-09T22:03:28.085Z,80.63
2024-01-09T22:05:58.024Z,81.08
2024-01-09T22:08:29.533Z,81.58
2024-01-09T22:11:00.418Z,81.86
2024-01-09T22:13:30.531Z,82.15
2024-01-09T22:15:59.007Z,82.93
2024-01-09T22:18:29.509Z,83.24
2024-01-09T22:21:01.400Z,83.38
2024-01-09T22:23:31.107Z,83.63
2024-01-09T22:25:59.552Z,83.88
2024-01-09T22:28:27.935Z,83.98
2024-01-09T22:30:56.358Z,84.31
2024-01-09T22:33:25.026Z,84.17
2024-01-09T22:35:57.575Z,84.57
2024-01-09T22:38:28.249Z,84.98
2024-01-09T22:40:58.481Z,85.07
2024-01-09T22:43:26.671Z,85.00
2024-01-09T22:45:54.997Z,85.43
2024-01-09T22:48:23.638Z,85.55
2024-01-09T22:50:54.721Z,86.02
2024-01-09T22:53:24.174Z,86.16
2024-01-09T22:55:54.061Z,86.19
2024-01-09T22:58:23.737Z,86.28
2024-01-09T23:00:52.375Z,87.03
2024-01-09T23:03:23.061Z,86.81
2024-01-09T23:05:51.625Z,87.04
2024-01-09T23:08:21.342Z,87.29
2024-01-09T23:10:54.609Z,87.31
2024-01-09T23:13:25.059Z,87.78
2024-01-09T23:15:53.417Z,87.66
2024-01-09T23:18:25.418Z,87.90
2024-01-09T23:20:55.516Z,87.62
2024-01-09T23:23:23.800Z,88.19
2024-01-09T23:25:52.113Z,88.43
2024-01-09T23:28:20.127Z,88.77
2024-01-09T23:30:50.517Z,88.96
2024-01-09T23:33:19.308Z,88.92
2024-01-09T23:35:47.505Z,88.96
2024-01-09T23:38:20.469Z,88.91
2024-01-09T23:40:48.378Z,88.86
2024-01-09T23:43:16.360Z,89.05
2024-01-09T23:45:45.608Z,88.99
2024-01-09T23:48:16.403Z,89.27
2024-01-09T23:50:44.485Z,88.97
2024-01-09T23:53:12.808Z,89.16
2024-01-09T23:55:41.185Z,89.18
2024-01-09T23:58:10.790Z,89.18
